createdAt,value
2023-05-02T00:00:41.384Z,8.94
2023-05-02T00:01:41.394Z,8.94
2023-05-02T00:02:41.498Z,8.95
2023-05-02T00:03:41.455Z,8.95
2023-05-02T00:04:41.361Z,8.96
2023-05-02T00:05:41.326Z,8.97
2023-05-02T00:06:41.362Z,8.98
2023-05-02T00:07:41.500Z,8.99
2023-05-02T00:08:41.527Z,9.00
2023-05-02T00:09:41.414Z,9.01
2023-05-02T00:10:41.279Z,9.02
2023-05-02T00:11:41.292Z,9.03
2023-05-02T00:12:41.251Z,9.04
2023-05-02T00:13:41.293Z,9.04
2023-05-02T00:14:41.680Z,9.05
2023-05-02T00:15:41.226Z,9.06
2023-05-02T00:16:41.353Z,9.06
2023-05-02T00:17:41.297Z,9.07
2023-05-02T00:18:41.151Z,9.08
2023-05-02T00:19:41.202Z,9.08
2023-05-02T00:20:41.494Z,9.09
2023-05-02T00:21:41.190Z,9.10
2023-05-02T00:22:41.118Z,9.11
2023-05-02T00:23:41.195Z,9.12
2023-05-02T00:24:41.097Z,9.13
2023-05-02T00:25:41.083Z,9.14
2023-05-02T00:26:41.733Z,9.14
2023-05-02T00:27:41.263Z,9.15
2023-05-02T00:28:41.036Z,9.15
2023-05-02T00:29:41.843Z,9.14
2023-05-02T00:30:41.081Z,9.14
2023-05-02T00:31:41.081Z,9.14
2023-05-02T00:32:41.334Z,9.15
2023-05-02T00:33:41.027Z,9.15
2023-05-02T00:34:41.001Z,9.15
2023-05-02T00:35:41.288Z,9.15
2023-05-02T00:36:41.500Z,9.15
2023-05-02T00:37:40.958Z,9.15
2023-05-02T00:38:41.499Z,9.15
2023-05-02T00:39:41.044Z,9.15
2023-05-02T00:40:40.933Z,9.16
2023-05-02T00:41:41.516Z,9.16
2023-05-02T00:42:40.882Z,9.17
2023-05-02T00:43:40.892Z,9.17
2023-05-02T00:44:40.995Z,9.18
2023-05-02T00:45:40.906Z,9.17
2023-05-02T00:46:41.570Z,9.17
2023-05-02T00:47:40.904Z,9.17
2023-05-02T00:48:40.811Z,9.16
2023-05-02T00:49:40.828Z,9.16
2023-05-02T00:50:41.135Z,9.16
2023-05-02T00:51:40.812Z,9.16
2023-05-02T00:52:40.762Z,9.16
2023-05-02T00:53:40.781Z,9.16
2023-05-02T00:54:40.757Z,9.16
2023-05-02T00:55:40.767Z,9.16
2023-05-02T00:56:41.019Z,9.16
2023-05-02T00:57:40.910Z,9.15
2023-05-02T00:58:40.703Z,9.15
2023-05-02T00:59:40.807Z,9.16
2023-05-02T01:00:40.774Z,9.16
2023-05-02T01:01:40.734Z,9.17
2023-05-02T01:02:40.824Z,9.17
2023-05-02T01:03:41.028Z,9.17
2023-05-02T01:04:40.610Z,9.17
2023-05-02T01:05:40.902Z,9.17
2023-05-02T01:06:40.758Z,9.18
2023-05-02T01:07:40.926Z,9.17
2023-05-02T01:08:40.925Z,9.17
2023-05-02T01:09:40.602Z,9.17
2023-05-02T01:10:40.697Z,9.17
2023-05-02T01:11:40.766Z,9.17
2023-05-02T01:12:41.102Z,9.17
2023-05-02T01:13:40.540Z,9.17
2023-05-02T01:14:40.625Z,9.16
2023-05-02T01:15:40.527Z,9.16
2023-05-02T01:16:40.625Z,9.14
2023-05-02T01:17:40.570Z,9.14
2023-05-02T01:18:40.478Z,9.13
2023-05-02T01:19:40.615Z,9.12
2023-05-02T01:20:40.435Z,9.12
2023-05-02T01:21:40.461Z,9.12
2023-05-02T01:22:40.810Z,9.11
2023-05-02T01:23:40.682Z,9.11
2023-05-02T01:24:40.382Z,9.12
2023-05-02T01:25:40.613Z,9.11
2023-05-02T01:26:40.357Z,9.12
2023-05-02T01:27:40.611Z,9.11
2023-05-02T01:28:40.539Z,9.10
2023-05-02T01:29:40.355Z,9.09
2023-05-02T01:30:40.316Z,9.09
2023-05-02T01:31:40.382Z,9.09
2023-05-02T01:32:40.445Z,9.09
2023-05-02T01:33:40.551Z,9.09
2023-05-02T01:34:40.418Z,9.10
2023-05-02T01:35:40.551Z,9.10
2023-05-02T01:36:40.248Z,9.10
2023-05-02T01:37:40.254Z,9.10
2023-05-02T01:38:40.233Z,9.11
2023-05-02T01:39:40.261Z,9.12
2023-05-02T01:40:40.303Z,9.13
2023-05-02T01:41:40.571Z,9.14
2023-05-02T01:42:40.849Z,9.15
2023-05-02T01:43:40.561Z,9.15
2023-05-02T01:44:40.191Z,9.16
2023-05-02T01:45:40.184Z,9.17
2023-05-02T01:46:40.237Z,9.18
2023-05-02T01:47:40.327Z,9.19
2023-05-02T01:48:40.281Z,9.21
2023-05-02T01:49:40.121Z,9.22
2023-05-02T01:50:40.251Z,9.24
2023-05-02T01:51:40.691Z,9.26
2023-05-02T01:52:40.106Z,9.27
2023-05-02T01:53:40.132Z,9.29
2023-05-02T01:54:40.128Z,9.30
2023-05-02T01:55:40.036Z,9.31
2023-05-02T01:56:40.043Z,9.32
2023-05-02T01:57:40.026Z,9.33
2023-05-02T01:58:40.365Z,9.35
2023-05-02T01:59:40.048Z,9.36
2023-05-02T02:00:40.312Z,9.37
2023-05-02T02:01:40.209Z,9.38
2023-05-02T02:02:39.965Z,9.39
2023-05-02T02:03:39.993Z,9.40
2023-05-02T02:04:40.326Z,9.42
2023-05-02T02:05:39.961Z,9.43
2023-05-02T02:06:40.406Z,9.44
2023-05-02T02:07:39.894Z,9.45
2023-05-02T02:08:40.585Z,9.46
2023-05-02T02:09:40.580Z,9.47
2023-05-02T02:10:39.891Z,9.47
2023-05-02T02:11:39.839Z,9.48
2023-05-02T02:12:39.867Z,9.49
2023-05-02T02:13:39.829Z,9.49
2023-05-02T02:14:39.863Z,9.50
2023-05-02T02:15:39.834Z,9.51
2023-05-02T02:16:39.896Z,9.51
2023-05-02T02:17:39.864Z,9.51
2023-05-02T02:18:39.790Z,9.51
2023-05-02T02:19:39.792Z,9.52
2023-05-02T02:20:39.778Z,9.53
2023-05-02T02:21:39.912Z,9.54
2023-05-02T02:22:39.922Z,9.55
2023-05-02T02:23:39.725Z,9.56
2023-05-02T02:24:39.739Z,9.57
2023-05-02T02:25:39.706Z,9.58
2023-05-02T02:26:39.688Z,9.60
2023-05-02T02:27:39.726Z,9.61
2023-05-02T02:28:40.006Z,9.62
2023-05-02T02:29:39.993Z,9.63
2023-05-02T02:30:40.030Z,9.64
2023-05-02T02:31:39.617Z,9.65
2023-05-02T02:32:39.640Z,9.66
2023-05-02T02:33:39.592Z,9.67
2023-05-02T02:34:39.597Z,9.68
2023-05-02T02:35:39.592Z,9.69
2023-05-02T02:36:39.573Z,9.70
2023-05-02T02:37:39.573Z,9.72
2023-05-02T02:38:39.586Z,9.73
2023-05-02T02:39:39.533Z,9.73
2023-05-02T02:40:39.585Z,9.74
2023-05-02T02:41:39.496Z,9.75
2023-05-02T02:42:39.511Z,9.76
2023-05-02T02:43:39.792Z,9.77
2023-05-02T02:44:39.482Z,9.78
2023-05-02T02:45:39.454Z,9.79
2023-05-02T02:46:39.691Z,9.80
2023-05-02T02:47:39.461Z,9.81
2023-05-02T02:48:39.455Z,9.82
2023-05-02T02:49:39.617Z,9.83
2023-05-02T02:50:39.465Z,9.84
2023-05-02T02:51:39.422Z,9.85
2023-05-02T02:52:39.375Z,9.86
2023-05-02T02:53:39.375Z,9.87
2023-05-02T02:54:39.380Z,9.88
2023-05-02T02:55:39.364Z,9.89
2023-05-02T02:56:39.365Z,9.90
2023-05-02T02:57:39.310Z,9.90
2023-05-02T02:58:39.318Z,9.91
2023-05-02T02:59:39.328Z,9.91
2023-05-02T03:00:39.290Z,9.93
2023-05-02T03:01:39.358Z,9.94
2023-05-02T03:02:39.308Z,9.96
2023-05-02T03:03:39.308Z,9.99
2023-05-02T03:04:39.276Z,10.02
2023-05-02T03:05:39.220Z,10.06
2023-05-02T03:06:39.308Z,10.10
2023-05-02T03:07:39.200Z,10.15
2023-05-02T03:08:39.201Z,10.19
2023-05-02T03:09:39.185Z,10.24
2023-05-02T03:10:39.621Z,10.28
2023-05-02T03:11:39.167Z,10.31
2023-05-02T03:12:39.157Z,10.34
2023-05-02T03:13:39.168Z,10.36
2023-05-02T03:14:39.116Z,10.38
2023-05-02T03:15:39.165Z,10.39
2023-05-02T03:16:39.208Z,10.41
2023-05-02T03:17:39.153Z,10.43
2023-05-02T03:18:39.088Z,10.45
2023-05-02T03:19:39.177Z,10.46
2023-05-02T03:20:39.057Z,10.48
2023-05-02T03:21:39.064Z,10.48
2023-05-02T03:22:39.058Z,10.49
2023-05-02T03:23:39.007Z,10.49
2023-05-02T03:24:39.011Z,10.49
2023-05-02T03:25:39.034Z,10.49
2023-05-02T03:26:39.012Z,10.49
2023-05-02T03:27:38.993Z,10.49
2023-05-02T03:28:39.241Z,10.49
2023-05-02T03:29:39.494Z,10.50
2023-05-02T03:30:38.936Z,10.50
2023-05-02T03:31:39.240Z,10.50
2023-05-02T03:32:38.961Z,10.49
2023-05-02T03:33:38.894Z,10.49
2023-05-02T03:34:38.893Z,10.49
2023-05-02T03:35:38.870Z,10.49
2023-05-02T03:36:38.878Z,10.49
2023-05-02T03:37:38.846Z,10.48
2023-05-02T03:38:38.941Z,10.48
2023-05-02T03:39:38.949Z,10.48
2023-05-02T03:40:38.828Z,10.47
2023-05-02T03:41:38.840Z,10.47
2023-05-02T03:42:38.973Z,10.46
2023-05-02T03:43:39.004Z,10.46
2023-05-02T03:44:38.795Z,10.46
2023-05-02T03:45:38.794Z,10.46
2023-05-02T03:46:39.108Z,10.46
2023-05-02T03:47:39.095Z,10.47
2023-05-02T03:48:38.739Z,10.47
2023-05-02T03:49:38.739Z,10.47
2023-05-02T03:50:39.108Z,10.46
2023-05-02T03:51:38.686Z,10.46
2023-05-02T03:52:38.705Z,10.46
2023-05-02T03:53:38.682Z,10.45
2023-05-02T03:54:38.658Z,10.45
2023-05-02T03:55:38.664Z,10.44
2023-05-02T03:56:39.822Z,10.43
2023-05-02T03:57:38.610Z,10.43
2023-05-02T03:58:38.669Z,10.42
2023-05-02T03:59:38.660Z,10.42
2023-05-02T04:00:38.589Z,10.41
2023-05-02T04:01:38.601Z,10.41
2023-05-02T04:02:38.764Z,10.40
2023-05-02T04:03:38.674Z,10.40
2023-05-02T04:04:38.737Z,10.40
2023-05-02T04:05:38.650Z,10.40
2023-05-02T04:06:38.808Z,10.40
2023-05-02T04:07:38.623Z,10.40
2023-05-02T04:08:38.664Z,10.40
2023-05-02T04:09:38.486Z,10.40
2023-05-02T04:10:38.481Z,10.40
2023-05-02T04:11:38.697Z,10.40
2023-05-02T04:12:38.453Z,10.39
2023-05-02T04:13:38.476Z,10.39
2023-05-02T04:14:38.675Z,10.38
2023-05-02T04:15:38.668Z,10.38
2023-05-02T04:16:38.501Z,10.37
2023-05-02T04:17:38.421Z,10.36
2023-05-02T04:18:38.375Z,10.35
2023-05-02T04:19:38.669Z,10.35
2023-05-02T04:20:38.674Z,10.35
2023-05-02T04:21:38.372Z,10.35
2023-05-02T04:22:38.345Z,10.34
2023-05-02T04:23:38.694Z,10.34
2023-05-02T04:24:38.321Z,10.33
2023-05-02T04:25:38.288Z,10.33
2023-05-02T04:26:38.681Z,10.33
2023-05-02T04:27:38.690Z,10.34
2023-05-02T04:28:38.265Z,10.34
2023-05-02T04:29:38.402Z,10.34
2023-05-02T04:30:38.302Z,10.34
2023-05-02T04:31:38.734Z,10.33
2023-05-02T04:32:38.398Z,10.33
2023-05-02T04:33:38.195Z,10.33
2023-05-02T04:34:38.213Z,10.33
2023-05-02T04:35:38.697Z,10.33
2023-05-02T04:36:38.185Z,10.33
2023-05-02T04:37:38.192Z,10.33
2023-05-02T04:38:38.147Z,10.34
2023-05-02T04:39:38.125Z,10.34
2023-05-02T04:40:38.116Z,10.35
2023-05-02T04:41:38.099Z,10.35
2023-05-02T04:42:38.107Z,10.36
2023-05-02T04:43:38.693Z,10.37
2023-05-02T04:44:38.474Z,10.37
2023-05-02T04:45:38.037Z,10.38
2023-05-02T04:46:38.402Z,10.38
2023-05-02T04:47:38.451Z,10.38
2023-05-02T04:48:38.010Z,10.39
2023-05-02T04:49:37.992Z,10.39
2023-05-02T04:50:38.053Z,10.40
2023-05-02T04:51:38.108Z,10.40
2023-05-02T04:52:37.982Z,10.40
2023-05-02T04:53:37.983Z,10.41
2023-05-02T04:54:37.988Z,10.41
2023-05-02T04:55:37.920Z,10.41
2023-05-02T04:56:37.943Z,10.41
2023-05-02T04:57:37.959Z,10.41
2023-05-02T04:58:37.905Z,10.41
2023-05-02T04:59:38.028Z,10.40
2023-05-02T05:00:37.915Z,10.40
2023-05-02T05:01:38.152Z,10.39
2023-05-02T05:02:38.203Z,10.39
2023-05-02T05:03:38.296Z,10.38
2023-05-02T05:04:38.090Z,10.37
2023-05-02T05:05:37.852Z,10.36
2023-05-02T05:06:38.246Z,10.35
2023-05-02T05:07:37.795Z,10.34
2023-05-02T05:08:38.152Z,10.33
2023-05-02T05:09:37.773Z,10.33
2023-05-02T05:10:38.162Z,10.33
2023-05-02T05:11:37.749Z,10.33
2023-05-02T05:12:38.201Z,10.33
2023-05-02T05:13:37.724Z,10.33
2023-05-02T05:14:37.754Z,10.32
2023-05-02T05:15:37.682Z,10.32
2023-05-02T05:16:37.761Z,10.32
2023-05-02T05:17:38.285Z,10.32
2023-05-02T05:18:37.725Z,10.32
2023-05-02T05:19:37.724Z,10.31
2023-05-02T05:20:37.739Z,10.30
2023-05-02T05:21:38.314Z,10.30
2023-05-02T05:22:37.829Z,10.29
2023-05-02T05:23:37.729Z,10.29
2023-05-02T05:24:37.736Z,10.29
2023-05-02T05:25:37.726Z,10.29
2023-05-02T05:26:37.617Z,10.29
2023-05-02T05:27:37.764Z,10.29
2023-05-02T05:28:37.736Z,10.29
2023-05-02T05:29:37.550Z,10.29
2023-05-02T05:30:38.425Z,10.29
2023-05-02T05:31:37.870Z,10.29
2023-05-02T05:32:38.061Z,10.29
2023-05-02T05:33:38.358Z,10.30
2023-05-02T05:34:37.752Z,10.30
2023-05-02T05:35:37.734Z,10.31
2023-05-02T05:36:37.490Z,10.32
2023-05-02T05:37:37.470Z,10.32
2023-05-02T05:38:37.523Z,10.34
2023-05-02T05:39:37.436Z,10.35
2023-05-02T05:40:37.593Z,10.36
2023-05-02T05:41:37.609Z,10.37
2023-05-02T05:42:37.645Z,10.37
2023-05-02T05:43:38.395Z,10.37
2023-05-02T05:44:37.378Z,10.37
2023-05-02T05:45:37.348Z,10.37
2023-05-02T05:46:37.811Z,10.37
2023-05-02T05:47:37.769Z,10.38
2023-05-02T05:48:37.329Z,10.38
2023-05-02T05:49:38.792Z,10.39
2023-05-02T05:50:37.755Z,10.39
2023-05-02T05:51:37.740Z,10.40
2023-05-02T05:52:37.284Z,10.40
2023-05-02T05:53:37.246Z,10.41
2023-05-02T05:54:37.237Z,10.42
2023-05-02T05:55:37.545Z,10.43
2023-05-02T05:56:37.264Z,10.44
2023-05-02T05:57:37.202Z,10.46
2023-05-02T05:58:37.240Z,10.47
2023-05-02T05:59:37.493Z,10.49
2023-05-02T06:00:37.171Z,10.51
2023-05-02T06:01:37.144Z,10.52
2023-05-02T06:02:37.701Z,10.54
2023-05-02T06:03:37.383Z,10.55
2023-05-02T06:04:37.139Z,10.56
2023-05-02T06:05:37.193Z,10.57
2023-05-02T06:06:37.545Z,10.58
2023-05-02T06:07:37.790Z,10.58
2023-05-02T06:08:37.112Z,10.59
2023-05-02T06:09:37.197Z,10.59
2023-05-02T06:10:37.036Z,10.59
2023-05-02T06:11:37.763Z,10.59
2023-05-02T06:12:37.047Z,10.58
2023-05-02T06:13:37.022Z,10.58
2023-05-02T06:14:36.989Z,10.58
2023-05-02T06:15:37.034Z,10.58
2023-05-02T06:16:37.118Z,10.58
2023-05-02T06:17:37.075Z,10.58
2023-05-02T06:18:37.054Z,10.59
2023-05-02T06:19:36.950Z,10.59
2023-05-02T06:20:37.095Z,10.60
2023-05-02T06:21:37.105Z,10.61
2023-05-02T06:22:36.901Z,10.62
2023-05-02T06:23:36.917Z,10.63
2023-05-02T06:24:36.886Z,10.64
2023-05-02T06:25:36.891Z,10.65
2023-05-02T06:26:36.860Z,10.65
2023-05-02T06:27:37.056Z,10.64
2023-05-02T06:28:36.837Z,10.63
2023-05-02T06:29:36.845Z,10.62
2023-05-02T06:30:36.806Z,10.61
2023-05-02T06:31:36.896Z,10.61
2023-05-02T06:32:36.808Z,10.60
2023-05-02T06:33:36.785Z,10.60
2023-05-02T06:34:36.768Z,10.59
2023-05-02T06:35:36.777Z,10.59
2023-05-02T06:36:36.723Z,10.59
2023-05-02T06:37:36.746Z,10.59
2023-05-02T06:38:36.714Z,10.59
2023-05-02T06:39:36.781Z,10.60
2023-05-02T06:40:36.680Z,10.60
2023-05-02T06:41:36.703Z,10.61
2023-05-02T06:42:36.653Z,10.61
2023-05-02T06:43:36.657Z,10.61
2023-05-02T06:44:36.636Z,10.62
2023-05-02T06:45:36.630Z,10.62
2023-05-02T06:46:36.665Z,10.62
2023-05-02T06:47:36.800Z,10.62
2023-05-02T06:48:36.610Z,10.62
2023-05-02T06:49:36.591Z,10.63
2023-05-02T06:50:36.786Z,10.63
2023-05-02T06:51:36.583Z,10.62
2023-05-02T06:52:36.539Z,10.63
2023-05-02T06:53:36.545Z,10.63
2023-05-02T06:54:36.551Z,10.63
2023-05-02T06:55:36.535Z,10.63
2023-05-02T06:56:36.506Z,10.63
2023-05-02T06:57:36.796Z,10.64
2023-05-02T06:58:36.471Z,10.65
2023-05-02T06:59:36.478Z,10.66
2023-05-02T07:00:36.479Z,10.67
2023-05-02T07:01:36.928Z,10.68
2023-05-02T07:02:36.798Z,10.69
2023-05-02T07:03:36.454Z,10.70
2023-05-02T07:04:36.530Z,10.70
2023-05-02T07:05:36.815Z,10.70
2023-05-02T07:06:36.461Z,10.70
2023-05-02T07:07:36.807Z,10.70
2023-05-02T07:08:36.804Z,10.71
2023-05-02T07:09:36.433Z,10.71
2023-05-02T07:10:36.360Z,10.72
2023-05-02T07:11:36.338Z,10.73
2023-05-02T07:12:36.447Z,10.74
2023-05-02T07:13:36.500Z,10.74
2023-05-02T07:14:36.359Z,10.74
2023-05-02T07:15:36.283Z,10.74
2023-05-02T07:16:36.308Z,10.75
2023-05-02T07:17:36.351Z,10.76
2023-05-02T07:18:36.253Z,10.77
2023-05-02T07:19:36.241Z,10.78
2023-05-02T07:20:36.230Z,10.78
2023-05-02T07:21:36.242Z,10.79
2023-05-02T07:22:36.793Z,10.80
2023-05-02T07:23:36.696Z,10.81
2023-05-02T07:24:36.172Z,10.81
2023-05-02T07:25:36.166Z,10.82
2023-05-02T07:26:36.819Z,10.82
2023-05-02T07:27:36.828Z,10.82
2023-05-02T07:28:36.838Z,10.82
2023-05-02T07:29:36.820Z,10.81
2023-05-02T07:30:36.399Z,10.81
2023-05-02T07:31:36.883Z,10.80
2023-05-02T07:32:36.860Z,10.80
2023-05-02T07:33:36.301Z,10.79
2023-05-02T07:34:36.063Z,10.79
2023-05-02T07:35:36.071Z,10.80
2023-05-02T07:36:36.079Z,10.81
2023-05-02T07:37:36.122Z,10.82
2023-05-02T07:38:36.112Z,10.83
2023-05-02T07:39:36.125Z,10.84
2023-05-02T07:40:36.011Z,10.85
2023-05-02T07:41:36.248Z,10.86
2023-05-02T07:42:36.173Z,10.88
2023-05-02T07:43:35.978Z,10.90
2023-05-02T07:44:36.205Z,10.92
2023-05-02T07:45:36.240Z,10.93
2023-05-02T07:46:36.088Z,10.95
2023-05-02T07:47:36.352Z,10.98
2023-05-02T07:48:36.087Z,11.01
2023-05-02T07:49:36.200Z,11.05
2023-05-02T07:50:35.860Z,11.08
2023-05-02T07:51:36.309Z,11.11
2023-05-02T07:52:35.845Z,11.14
2023-05-02T07:53:35.876Z,11.17
2023-05-02T07:54:35.904Z,11.21
2023-05-02T07:55:35.817Z,11.23
2023-05-02T07:56:35.827Z,11.26
2023-05-02T07:57:35.846Z,11.29
2023-05-02T07:58:35.850Z,11.31
2023-05-02T07:59:35.800Z,11.34
2023-05-02T08:00:35.789Z,11.38
2023-05-02T08:01:35.852Z,11.41
2023-05-02T08:02:35.778Z,11.43
2023-05-02T08:03:36.059Z,11.45
2023-05-02T08:04:35.730Z,11.46
2023-05-02T08:05:35.737Z,11.47
2023-05-02T08:06:35.945Z,11.49
2023-05-02T08:07:37.079Z,11.50
2023-05-02T08:08:35.684Z,11.52
2023-05-02T08:09:35.869Z,11.53
2023-05-02T08:10:35.644Z,11.55
2023-05-02T08:11:35.635Z,11.57
2023-05-02T08:12:35.627Z,11.59
2023-05-02T08:13:35.604Z,11.61
2023-05-02T08:14:35.862Z,11.63
2023-05-02T08:15:35.619Z,11.65
2023-05-02T08:16:35.613Z,11.67
2023-05-02T08:17:35.607Z,11.69
2023-05-02T08:18:35.550Z,11.71
2023-05-02T08:19:35.565Z,11.73
2023-05-02T08:20:35.531Z,11.74
2023-05-02T08:21:35.542Z,11.74
2023-05-02T08:22:35.872Z,11.75
2023-05-02T08:23:35.507Z,11.75
2023-05-02T08:24:35.485Z,11.76
2023-05-02T08:25:35.527Z,11.77
2023-05-02T08:26:35.468Z,11.75
2023-05-02T08:27:35.571Z,11.70
2023-05-02T08:28:35.450Z,11.65
2023-05-02T08:29:35.452Z,11.59
2023-05-02T08:30:35.483Z,11.54
2023-05-02T08:31:35.462Z,11.50
2023-05-02T08:32:35.430Z,11.47
2023-05-02T08:33:35.388Z,11.43
2023-05-02T08:34:35.375Z,11.38
2023-05-02T08:35:35.377Z,11.33
2023-05-02T08:36:35.369Z,11.30
2023-05-02T08:37:35.367Z,11.28
2023-05-02T08:38:35.887Z,11.27
2023-05-02T08:39:35.318Z,11.26
2023-05-02T08:40:41.566Z,11.25
2023-05-02T08:41:36.316Z,11.26
2023-05-02T08:42:35.264Z,11.26
2023-05-02T08:43:35.274Z,11.26
2023-05-02T08:44:35.253Z,11.24
2023-05-02T08:45:35.269Z,11.22
2023-05-02T08:46:35.531Z,11.21
2023-05-02T08:47:35.313Z,11.20
2023-05-02T08:48:35.213Z,11.19
2023-05-02T08:49:35.212Z,11.18
2023-05-02T08:50:35.155Z,11.17
2023-05-02T08:51:35.230Z,11.15
2023-05-02T08:52:35.161Z,11.14
2023-05-02T08:53:35.154Z,11.13
2023-05-02T08:54:35.196Z,11.11
2023-05-02T08:55:35.173Z,11.09
2023-05-02T08:56:35.097Z,11.07
2023-05-02T08:57:35.257Z,11.06
2023-05-02T08:58:35.230Z,11.05
2023-05-02T08:59:35.258Z,11.04
2023-05-02T09:00:35.056Z,11.05
2023-05-02T09:01:35.094Z,11.06
2023-05-02T09:02:35.358Z,11.08
2023-05-02T09:03:35.338Z,11.10
2023-05-02T09:04:35.381Z,11.12
2023-05-02T09:05:35.016Z,11.15
2023-05-02T09:06:35.028Z,11.18
2023-05-02T09:07:35.023Z,11.22
2023-05-02T09:08:34.996Z,11.25
2023-05-02T09:09:34.949Z,11.29
2023-05-02T09:10:35.299Z,11.31
2023-05-02T09:11:34.948Z,11.34
2023-05-02T09:12:35.025Z,11.36
2023-05-02T09:13:34.949Z,11.39
2023-05-02T09:14:34.880Z,11.42
2023-05-02T09:15:34.920Z,11.43
2023-05-02T09:16:34.963Z,11.43
2023-05-02T09:17:34.906Z,11.45
2023-05-02T09:18:34.846Z,11.46
2023-05-02T09:19:34.872Z,11.47
2023-05-02T09:20:34.826Z,11.48
2023-05-02T09:21:34.859Z,11.48
2023-05-02T09:22:34.821Z,11.49
2023-05-02T09:23:34.832Z,11.49
2023-05-02T09:24:34.795Z,11.50
2023-05-02T09:25:34.795Z,11.51
2023-05-02T09:26:34.747Z,11.50
2023-05-02T09:27:34.760Z,11.50
2023-05-02T09:28:34.738Z,11.50
2023-05-02T09:29:34.754Z,11.50
2023-05-02T09:30:34.769Z,11.50
2023-05-02T09:32:34.746Z,11.51
2023-05-02T09:33:34.707Z,11.52
2023-05-02T09:34:34.686Z,11.53
2023-05-02T09:35:34.681Z,11.55
2023-05-02T09:36:34.640Z,11.58
2023-05-02T09:37:34.695Z,11.61
2023-05-02T09:38:34.635Z,11.63
2023-05-02T09:39:34.686Z,11.66
2023-05-02T09:40:34.578Z,11.68
2023-05-02T09:41:34.593Z,11.70
2023-05-02T09:42:34.648Z,11.72
2023-05-02T09:43:34.584Z,11.76
2023-05-02T09:44:34.602Z,11.80
2023-05-02T09:45:34.569Z,11.86
2023-05-02T09:46:34.601Z,11.92
2023-05-02T09:47:34.574Z,11.98
2023-05-02T09:48:34.505Z,12.05
2023-05-02T09:49:34.499Z,12.11
2023-05-02T09:50:35.190Z,12.18
2023-05-02T09:51:34.469Z,12.26
2023-05-02T09:52:34.477Z,12.34
2023-05-02T09:53:34.509Z,12.42
2023-05-02T09:54:34.463Z,12.48
2023-05-02T09:55:34.465Z,12.53
2023-05-02T09:56:34.416Z,12.55
2023-05-02T09:57:34.447Z,12.55
2023-05-02T09:58:34.959Z,12.54
2023-05-02T09:59:34.411Z,12.52
2023-05-02T10:00:34.371Z,12.48
2023-05-02T10:01:34.398Z,12.45
2023-05-02T10:02:34.459Z,12.42
2023-05-02T10:03:34.349Z,12.40
2023-05-02T10:04:34.537Z,12.38
2023-05-02T10:05:34.305Z,12.37
2023-05-02T10:06:34.987Z,12.36
2023-05-02T10:07:35.195Z,12.34
2023-05-02T10:08:34.472Z,12.32
2023-05-02T10:09:34.266Z,12.30
2023-05-02T10:10:34.230Z,12.29
2023-05-02T10:11:34.241Z,12.28
2023-05-02T10:12:34.206Z,12.27
2023-05-02T10:13:34.234Z,12.25
2023-05-02T10:14:34.292Z,12.22
2023-05-02T10:15:34.253Z,12.21
2023-05-02T10:16:34.214Z,12.21
2023-05-02T10:17:34.223Z,12.22
2023-05-02T10:18:34.161Z,12.23
2023-05-02T10:19:34.131Z,12.23
2023-05-02T10:20:34.147Z,12.23
2023-05-02T10:21:34.107Z,12.22
2023-05-02T10:22:34.124Z,12.20
2023-05-02T10:23:34.112Z,12.19
2023-05-02T10:24:34.096Z,12.17
2023-05-02T10:25:34.057Z,12.16
2023-05-02T10:26:34.461Z,12.15
2023-05-02T10:27:34.062Z,12.15
2023-05-02T10:28:34.072Z,12.16
2023-05-02T10:29:34.012Z,12.17
2023-05-02T10:30:34.050Z,12.17
2023-05-02T10:31:34.081Z,12.16
2023-05-02T10:32:34.032Z,12.16
2023-05-02T10:33:33.982Z,12.16
2023-05-02T10:34:34.015Z,12.16
2023-05-02T10:35:33.941Z,12.15
2023-05-02T10:36:33.956Z,12.15
2023-05-02T10:37:33.954Z,12.16
2023-05-02T10:38:33.974Z,12.18
2023-05-02T10:39:33.904Z,12.20
2023-05-02T10:40:33.916Z,12.23
2023-05-02T10:41:33.874Z,12.27
2023-05-02T10:42:33.875Z,12.31
2023-05-02T10:43:33.881Z,12.37
2023-05-02T10:44:33.861Z,12.43
2023-05-02T10:45:33.825Z,12.49
2023-05-02T10:46:33.894Z,12.56
2023-05-02T10:47:33.825Z,12.61
2023-05-02T10:48:33.809Z,12.65
2023-05-02T10:49:33.795Z,12.68
2023-05-02T10:50:33.777Z,12.69
2023-05-02T10:51:33.802Z,12.68
2023-05-02T10:52:33.764Z,12.67
2023-05-02T10:53:33.764Z,12.66
2023-05-02T10:54:33.762Z,12.66
2023-05-02T10:55:33.702Z,12.65
2023-05-02T10:56:33.995Z,12.63
2023-05-02T10:57:33.980Z,12.59
2023-05-02T10:58:33.675Z,12.54
2023-05-02T10:59:33.677Z,12.48
2023-05-02T11:00:33.919Z,12.42
2023-05-02T11:01:33.707Z,12.36
2023-05-02T11:02:33.690Z,12.31
2023-05-02T11:03:33.735Z,12.26
2023-05-02T11:04:33.606Z,12.23
2023-05-02T11:05:33.607Z,12.20
2023-05-02T11:06:33.744Z,12.18
2023-05-02T11:07:33.599Z,12.16
2023-05-02T11:08:33.569Z,12.14
2023-05-02T11:09:33.549Z,12.14
2023-05-02T11:10:33.570Z,12.12
2023-05-02T11:11:33.521Z,12.10
2023-05-02T11:12:33.997Z,12.08
2023-05-02T11:13:33.498Z,12.07
2023-05-02T11:14:33.506Z,12.06
2023-05-02T11:15:33.505Z,12.04
2023-05-02T11:16:33.553Z,12.03
2023-05-02T11:17:33.508Z,12.03
2023-05-02T11:18:33.445Z,12.02
2023-05-02T11:19:33.457Z,12.01
2023-05-02T11:20:33.999Z,11.98
2023-05-02T11:21:33.426Z,11.94
2023-05-02T11:22:33.405Z,11.92
2023-05-02T11:23:33.520Z,11.91
2023-05-02T11:24:33.409Z,11.90
2023-05-02T11:25:33.366Z,11.89
2023-05-02T11:26:33.373Z,11.88
2023-05-02T11:27:34.007Z,11.89
2023-05-02T11:28:34.017Z,11.89
2023-05-02T11:29:33.323Z,11.90
2023-05-02T11:30:33.318Z,11.91
2023-05-02T11:31:33.318Z,11.93
2023-05-02T11:32:33.403Z,11.94
2023-05-02T11:33:33.262Z,11.96
2023-05-02T11:34:33.283Z,11.98
2023-05-02T11:35:33.340Z,12.00
2023-05-02T11:36:33.710Z,12.04
2023-05-02T11:37:33.231Z,12.09
2023-05-02T11:38:33.231Z,12.14
2023-05-02T11:39:33.212Z,12.19
2023-05-02T11:40:33.232Z,12.23
2023-05-02T11:41:33.195Z,12.26
2023-05-02T11:42:33.214Z,12.29
2023-05-02T11:43:33.173Z,12.32
2023-05-02T11:44:33.171Z,12.36
2023-05-02T11:45:33.137Z,12.41
2023-05-02T11:46:33.282Z,12.46
2023-05-02T11:47:33.203Z,12.50
2023-05-02T11:48:33.314Z,12.51
2023-05-02T11:49:33.103Z,12.49
2023-05-02T11:50:33.096Z,12.47
2023-05-02T11:51:33.057Z,12.47
2023-05-02T11:52:33.060Z,12.46
2023-05-02T11:53:33.071Z,12.47
2023-05-02T11:54:33.037Z,12.48
2023-05-02T11:55:33.008Z,12.52
2023-05-02T11:56:33.014Z,12.57
2023-05-02T11:57:32.989Z,12.61
2023-05-02T11:58:33.085Z,12.63
2023-05-02T11:59:32.958Z,12.64
2023-05-02T12:00:32.967Z,12.66
2023-05-02T12:01:32.944Z,12.68
2023-05-02T12:02:32.992Z,12.70
2023-05-02T12:03:33.145Z,12.71
2023-05-02T12:04:32.922Z,12.71
2023-05-02T12:05:32.997Z,12.71
2023-05-02T12:06:32.960Z,12.71
2023-05-02T12:07:32.872Z,12.71
2023-05-02T12:08:32.902Z,12.72
2023-05-02T12:09:32.851Z,12.73
2023-05-02T12:10:32.867Z,12.75
2023-05-02T12:11:32.816Z,12.77
2023-05-02T12:12:32.812Z,12.80
2023-05-02T12:13:32.825Z,12.83
2023-05-02T12:14:32.812Z,12.86
2023-05-02T12:15:32.773Z,12.88
2023-05-02T12:16:32.884Z,12.89
2023-05-02T12:17:32.852Z,12.88
2023-05-02T12:18:32.785Z,12.88
2023-05-02T12:19:32.725Z,12.89
2023-05-02T12:20:32.744Z,12.91
2023-05-02T12:21:32.705Z,12.93
2023-05-02T12:22:32.745Z,12.96
2023-05-02T12:23:33.655Z,12.99
2023-05-02T12:24:32.688Z,13.03
2023-05-02T12:25:32.659Z,13.08
2023-05-02T12:26:32.712Z,13.12
2023-05-02T12:27:32.643Z,13.15
2023-05-02T12:28:32.647Z,13.18
2023-05-02T12:29:32.609Z,13.21
2023-05-02T12:30:32.639Z,13.24
2023-05-02T12:31:32.643Z,13.27
2023-05-02T12:32:32.630Z,13.31
2023-05-02T12:33:32.580Z,13.34
2023-05-02T12:34:32.573Z,13.37
2023-05-02T12:35:32.547Z,13.39
2023-05-02T12:36:32.550Z,13.39
2023-05-02T12:37:32.521Z,13.39
2023-05-02T12:38:32.524Z,13.37
2023-05-02T12:39:32.512Z,13.37
2023-05-02T12:40:32.509Z,13.35
2023-05-02T12:41:32.485Z,13.33
2023-05-02T12:42:32.471Z,13.30
2023-05-02T12:43:32.446Z,13.26
2023-05-02T12:44:32.468Z,13.22
2023-05-02T12:45:32.459Z,13.21
2023-05-02T12:46:32.856Z,13.21
2023-05-02T12:47:32.457Z,13.23
2023-05-02T12:48:32.435Z,13.24
2023-05-02T12:49:32.388Z,13.24
2023-05-02T12:50:32.381Z,13.24
2023-05-02T12:51:32.358Z,13.26
2023-05-02T12:52:32.348Z,13.29
2023-05-02T12:53:32.330Z,13.32
2023-05-02T12:54:32.345Z,13.33
2023-05-02T12:55:32.504Z,13.32
2023-05-02T12:56:32.647Z,13.31
2023-05-02T12:57:32.281Z,13.31
2023-05-02T12:58:32.266Z,13.31
2023-05-02T12:59:32.265Z,13.29